createdAt,value
2023-07-20T00:00:41.507Z,100259.58
2023-07-20T00:03:30.119Z,100251.73
2023-07-20T00:05:58.780Z,100248.44
2023-07-20T00:08:27.327Z,100249.85
2023-07-20T00:10:55.864Z,100254.25
2023-07-20T00:13:24.397Z,100252.18
2023-07-20T00:15:53.728Z,100257.45
2023-07-20T00:18:22.650Z,100255.15
2023-07-20T00:20:52.278Z,100262.94
2023-07-20T00:23:24.279Z,100262.91
2023-07-20T00:25:52.691Z,100261.71
2023-07-20T00:28:21.890Z,100258.34
2023-07-20T00:30:50.257Z,100264.20
2023-07-20T00:33:19.579Z,100272.31
2023-07-20T00:35:47.993Z,100270.60
2023-07-20T00:38:16.287Z,100273.99
2023-07-20T00:40:44.496Z,100264.48
2023-07-20T00:43:13.244Z,100255.45
2023-07-20T00:45:41.525Z,100249.00
2023-07-20T00:48:10.285Z,100252.41
2023-07-20T00:50:41.129Z,100252.05
2023-07-20T00:53:10.304Z,100250.92
2023-07-20T00:55:38.962Z,100253.31
2023-07-20T00:58:08.472Z,100254.74
2023-07-20T01:00:36.780Z,100255.24
2023-07-20T01:03:05.279Z,100257.09
2023-07-20T01:05:43.652Z,100252.63
2023-07-20T01:08:22.451Z,100245.52
2023-07-20T01:11:04.540Z,100247.09
2023-07-20T01:13:33.754Z,100252.59
2023-07-20T01:16:03.299Z,100257.02
2023-07-20T01:18:34.525Z,100262.16
2023-07-20T01:21:09.077Z,100255.75
2023-07-20T01:24:08.477Z,100260.64
2023-07-20T01:27:05.318Z,100263.81
2023-07-20T01:30:01.527Z,100267.23
2023-07-20T01:32:32.494Z,100261.95
2023-07-20T01:35:03.424Z,100253.48
2023-07-20T01:37:34.197Z,100247.85
2023-07-20T01:40:02.938Z,100248.43
2023-07-20T01:42:31.820Z,100252.30
2023-07-20T01:45:00.205Z,100259.78
2023-07-20T01:47:28.501Z,100258.42
2023-07-20T01:49:56.603Z,100258.05
2023-07-20T01:52:24.903Z,100258.13
2023-07-20T01:54:53.186Z,100258.27
2023-07-20T01:57:21.869Z,100257.56
2023-07-20T01:59:50.243Z,100259.71
2023-07-20T02:02:22.025Z,100263.90
2023-07-20T02:04:50.701Z,100264.48
2023-07-20T02:07:19.476Z,100266.77
2023-07-20T02:09:47.807Z,100263.10
2023-07-20T02:12:16.163Z,100263.08
2023-07-20T02:14:44.668Z,100271.23
2023-07-20T02:17:13.212Z,100277.60
2023-07-20T02:19:42.710Z,100278.70
2023-07-20T02:22:11.520Z,100279.81
2023-07-20T02:24:39.803Z,100275.23
2023-07-20T02:27:08.684Z,100276.14
2023-07-20T02:29:37.443Z,100270.90
2023-07-20T02:32:06.166Z,100273.23
2023-07-20T02:34:34.773Z,100268.01
2023-07-20T02:37:03.434Z,100263.30
2023-07-20T02:39:31.995Z,100258.98
2023-07-20T02:42:00.443Z,100255.83
2023-07-20T02:44:29.305Z,100256.34
2023-07-20T02:46:57.774Z,100252.75
2023-07-20T02:49:26.517Z,100253.08
2023-07-20T02:51:55.798Z,100256.63
2023-07-20T02:54:24.062Z,100258.66
2023-07-20T02:56:52.428Z,100258.51
2023-07-20T02:59:20.827Z,100257.36
2023-07-20T03:01:49.112Z,100257.74
2023-07-20T03:04:17.733Z,100259.45
2023-07-20T03:06:46.031Z,100262.61
2023-07-20T03:09:14.310Z,100261.48
2023-07-20T03:11:42.663Z,100263.58
2023-07-20T03:14:12.080Z,100261.41
2023-07-20T03:16:40.420Z,100266.20
2023-07-20T03:19:08.888Z,100262.92
2023-07-20T03:21:42.327Z,100259.66
2023-07-20T03:24:10.642Z,100261.44
2023-07-20T03:26:39.117Z,100258.42
2023-07-20T03:29:08.180Z,100258.03
2023-07-20T03:31:36.549Z,100263.58
2023-07-20T03:34:05.098Z,100266.77
2023-07-20T03:36:33.410Z,100270.33
2023-07-20T03:39:01.693Z,100269.66
2023-07-20T03:41:30.045Z,100266.11
2023-07-20T03:43:58.387Z,100270.41
2023-07-20T03:46:27.164Z,100268.67
2023-07-20T03:48:55.637Z,100268.40
2023-07-20T03:51:23.923Z,100265.59
2023-07-20T03:53:52.270Z,100264.88
2023-07-20T03:56:20.622Z,100263.22
2023-07-20T03:58:49.591Z,100265.50
2023-07-20T04:01:21.305Z,100263.24
2023-07-20T04:03:50.207Z,100260.84
2023-07-20T04:06:19.109Z,100265.61
2023-07-20T04:08:48.612Z,100266.89
2023-07-20T04:11:17.009Z,100265.83
2023-07-20T04:13:45.113Z,100272.73
2023-07-20T04:16:13.435Z,100274.74
2023-07-20T04:18:41.884Z,100274.48
2023-07-20T04:21:11.329Z,100276.27
2023-07-20T04:23:39.723Z,100274.20
2023-07-20T04:26:08.208Z,100273.98
2023-07-20T04:28:36.487Z,100275.26
2023-07-20T04:31:15.276Z,100277.77
2023-07-20T04:33:43.966Z,100276.31
2023-07-20T04:36:12.444Z,100274.20
2023-07-20T04:38:43.748Z,100276.27
2023-07-20T04:41:13.717Z,100274.58
2023-07-20T04:43:45.645Z,100276.69
2023-07-20T04:46:14.346Z,100278.40
2023-07-20T04:48:42.966Z,100279.48
2023-07-20T04:51:11.760Z,100273.60
2023-07-20T04:53:40.270Z,100274.94
2023-07-20T04:56:09.798Z,100273.17
2023-07-20T04:58:38.268Z,100271.56
2023-07-20T05:01:06.710Z,100275.10
2023-07-20T05:03:35.445Z,100277.36
2023-07-20T05:06:04.327Z,100273.73
2023-07-20T05:08:32.635Z,100273.66
2023-07-20T05:11:03.853Z,100270.96
2023-07-20T05:13:32.103Z,100270.59
2023-07-20T05:16:00.349Z,100271.52
2023-07-20T05:18:28.844Z,100275.92
2023-07-20T05:20:57.358Z,100279.18
2023-07-20T05:23:25.560Z,100281.63
2023-07-20T05:25:58.030Z,100279.59
2023-07-20T05:28:30.648Z,100278.45
2023-07-20T05:31:04.218Z,100279.24
2023-07-20T05:33:32.508Z,100279.78
2023-07-20T05:36:00.929Z,100281.10
2023-07-20T05:38:29.261Z,100282.35
2023-07-20T05:41:02.506Z,100284.33
2023-07-20T05:43:31.585Z,100285.55
2023-07-20T05:46:00.157Z,100283.41
2023-07-20T05:48:28.677Z,100280.39
2023-07-20T05:50:57.529Z,100278.87
2023-07-20T05:53:25.891Z,100277.06
2023-07-20T05:55:56.959Z,100277.23
2023-07-20T05:58:25.848Z,100277.91
2023-07-20T06:00:55.018Z,100277.71
2023-07-20T06:03:23.763Z,100275.68
2023-07-20T06:05:55.186Z,100275.74
2023-07-20T06:08:23.643Z,100278.58
2023-07-20T06:10:55.430Z,100276.41
2023-07-20T06:13:24.057Z,100277.23
2023-07-20T06:15:52.427Z,100282.63
2023-07-20T06:18:22.295Z,100282.36
2023-07-20T06:20:54.435Z,100284.23
2023-07-20T06:23:23.018Z,100285.70
2023-07-20T06:25:51.497Z,100287.48
2023-07-20T06:28:19.764Z,100283.42
2023-07-20T06:30:48.412Z,100279.99
2023-07-20T06:33:16.758Z,100280.11
2023-07-20T06:35:45.160Z,100278.48
2023-07-20T06:40:45.060Z,100281.50
2023-07-20T06:45:45.408Z,100288.10
2023-07-20T06:48:13.736Z,100288.71
2023-07-20T06:50:42.253Z,100287.30
2023-07-20T06:53:10.817Z,100290.23
2023-07-20T06:55:41.386Z,100286.84
2023-07-20T06:58:13.978Z,100288.38
2023-07-20T07:00:42.442Z,100285.34
2023-07-20T07:03:10.918Z,100286.54
2023-07-20T07:05:42.383Z,100285.05
2023-07-20T07:08:10.785Z,100284.59
2023-07-20T07:10:39.125Z,100284.60
2023-07-20T07:13:07.254Z,100288.44
2023-07-20T07:15:39.284Z,100295.02
2023-07-20T07:18:07.891Z,100293.39
2023-07-20T07:20:41.216Z,100291.82
2023-07-20T07:23:09.585Z,100293.45
2023-07-20T07:25:38.032Z,100290.95
2023-07-20T07:28:06.340Z,100290.39
2023-07-20T07:30:35.099Z,100293.50
2023-07-20T07:33:03.641Z,100295.26
2023-07-20T07:35:31.859Z,100292.16
2023-07-20T07:38:12.284Z,100292.76
2023-07-20T07:40:48.511Z,100298.42
2023-07-20T07:43:17.155Z,100297.09
2023-07-20T07:45:45.357Z,100299.50
2023-07-20T07:48:15.460Z,100296.96
2023-07-20T07:50:44.198Z,100299.58
2023-07-20T07:53:12.638Z,100301.05
2023-07-20T07:55:43.401Z,100299.48
2023-07-20T07:58:11.956Z,100298.59
2023-07-20T08:00:40.949Z,100292.84
2023-07-20T08:03:10.106Z,100295.42
2023-07-20T08:05:38.993Z,100290.80
2023-07-20T08:08:07.456Z,100291.98
2023-07-20T08:10:35.865Z,100291.19
2023-07-20T08:13:04.234Z,100289.33
2023-07-20T08:15:32.644Z,100289.25
2023-07-20T08:18:01.294Z,100293.13
2023-07-20T08:20:29.902Z,100288.97
2023-07-20T08:22:59.561Z,100287.86
2023-07-20T08:25:27.971Z,100281.95
2023-07-20T08:27:56.266Z,100284.63
2023-07-20T08:30:25.046Z,100289.58
2023-07-20T08:32:53.370Z,100293.33
2023-07-20T08:35:23.070Z,100295.52
2023-07-20T08:37:51.595Z,100298.04
2023-07-20T08:40:20.055Z,100300.23
2023-07-20T08:42:49.158Z,100304.60
2023-07-20T08:45:18.768Z,100298.34
2023-07-20T08:47:50.655Z,100296.11
2023-07-20T08:50:20.251Z,100290.23
2023-07-20T08:52:49.788Z,100290.63
2023-07-20T08:55:18.596Z,100302.86
2023-07-20T08:57:51.109Z,100298.11
2023-07-20T09:00:20.991Z,100294.95
2023-07-20T09:02:52.919Z,100291.40
2023-07-20T09:05:24.498Z,100292.27
2023-07-20T09:07:54.538Z,100285.54
2023-07-20T09:10:24.220Z,100273.71
2023-07-20T09:12:54.269Z,100268.05
2023-07-20T09:15:26.990Z,100271.09
2023-07-20T09:17:55.495Z,100269.25
2023-07-20T09:20:24.027Z,100268.63
2023-07-20T09:22:54.348Z,100267.68
2023-07-20T09:25:25.358Z,100260.69
2023-07-20T09:27:56.988Z,100262.39
2023-07-20T09:33:03.098Z,100261.63
2023-07-20T09:35:41.651Z,100262.84
2023-07-20T09:50:58.103Z,100256.46
2023-07-20T09:53:30.459Z,100248.86
2023-07-20T09:56:00.850Z,100248.15
2023-07-20T09:58:30.297Z,100250.62
2023-07-20T10:01:08.291Z,100248.98
2023-07-20T10:03:38.757Z,100247.73
2023-07-20T10:06:11.899Z,100246.00
2023-07-20T10:11:17.070Z,100253.80
2023-07-20T10:13:46.764Z,100253.23
2023-07-20T10:16:31.046Z,100251.92
2023-07-20T10:19:19.181Z,100247.20
2023-07-20T10:21:56.604Z,100243.22
2023-07-20T10:24:29.825Z,100242.72
2023-07-20T10:26:59.574Z,100240.80
2023-07-20T10:29:30.546Z,100235.73
2023-07-20T10:31:59.480Z,100235.75
2023-07-20T10:34:27.913Z,100238.12
2023-07-20T10:36:56.411Z,100242.01
2023-07-20T10:39:35.028Z,100241.09
2023-07-20T10:42:11.163Z,100235.93
2023-07-20T10:44:41.160Z,100228.95
2023-07-20T10:47:14.399Z,100228.47
2023-07-20T10:50:15.390Z,100232.44
2023-07-20T10:52:44.064Z,100231.85
2023-07-20T10:55:16.431Z,100232.27
2023-07-20T10:57:46.062Z,100228.36
2023-07-20T11:00:16.274Z,100223.66
2023-07-20T11:02:45.667Z,100227.73
2023-07-20T11:05:33.863Z,100224.18
2023-07-20T11:08:06.156Z,100220.79
2023-07-20T11:10:35.397Z,100219.77
2023-07-20T11:13:24.902Z,100222.35
2023-07-20T11:15:58.025Z,100222.15
2023-07-20T11:18:29.727Z,100224.54
2023-07-20T11:20:58.621Z,100221.41
2023-07-20T11:23:27.895Z,100221.51
2023-07-20T11:25:56.368Z,100214.48
2023-07-20T11:28:24.955Z,100211.41
2023-07-20T11:30:56.423Z,100207.91
2023-07-20T11:33:25.114Z,100210.38
2023-07-20T11:35:54.371Z,100209.41
2023-07-20T11:38:22.756Z,100211.77
2023-07-20T11:40:51.765Z,100204.64
2023-07-20T11:43:22.488Z,100215.87
2023-07-20T11:45:50.970Z,100238.45
2023-07-20T11:48:19.504Z,100269.16
2023-07-20T11:50:48.373Z,100279.24
2023-07-20T11:53:17.714Z,100294.27
2023-07-20T11:55:47.289Z,100304.73
2023-07-20T11:58:18.290Z,100303.17
2023-07-20T12:00:47.521Z,100296.27
2023-07-20T12:03:16.368Z,100292.02
2023-07-20T12:06:00.460Z,100303.71
2023-07-20T12:08:30.547Z,100309.29
2023-07-20T12:10:59.128Z,100313.19
2023-07-20T12:14:11.555Z,100315.64
2023-07-20T12:16:40.576Z,100316.61
2023-07-20T12:19:11.010Z,100309.04
2023-07-20T12:21:42.502Z,100313.58
2023-07-20T12:24:12.764Z,100320.13
2023-07-20T12:26:41.546Z,100318.69
2023-07-20T12:29:10.036Z,100321.46
2023-07-20T12:31:41.751Z,100320.23
2023-07-20T12:34:10.807Z,100327.15
2023-07-20T12:36:39.225Z,100323.95
2023-07-20T12:39:07.651Z,100320.66
2023-07-20T12:41:35.771Z,100325.61
2023-07-20T12:44:04.177Z,100322.12
2023-07-20T12:46:36.598Z,100317.48
2023-07-20T12:49:05.548Z,100314.13
2023-07-20T12:51:33.886Z,100316.55
2023-07-20T12:54:02.369Z,100316.45
2023-07-20T12:59:04.127Z,100303.69
2023-07-20T13:01:34.817Z,100297.77
2023-07-20T13:06:37.499Z,100295.64
2023-07-20T13:09:06.314Z,100296.26
2023-07-20T13:11:34.900Z,100295.29
2023-07-20T13:14:03.433Z,100288.13
2023-07-20T13:16:31.864Z,100285.60
2023-07-20T13:19:02.037Z,100284.52
2023-07-20T13:21:30.592Z,100285.21
2023-07-20T13:23:59.058Z,100292.70
2023-07-20T13:26:27.546Z,100297.55
2023-07-20T13:28:56.363Z,100298.05
2023-07-20T13:31:25.081Z,100295.61
2023-07-20T13:33:57.685Z,100290.85
2023-07-20T13:36:30.516Z,100286.30
2023-07-20T13:39:00.665Z,100286.63
2023-07-20T13:41:30.101Z,100286.46
2023-07-20T13:44:02.332Z,100284.67
2023-07-20T13:49:01.747Z,100288.58
2023-07-20T13:51:30.382Z,100289.80
2023-07-20T13:53:59.458Z,100292.44
2023-07-20T13:56:28.754Z,100286.89
2023-07-20T13:58:59.348Z,100296.58
2023-07-20T14:01:30.252Z,100293.54
2023-07-20T14:03:59.393Z,100299.61
2023-07-20T14:06:34.596Z,100304.27
2023-07-20T14:09:04.926Z,100304.98
2023-07-20T14:14:04.682Z,100297.35
2023-07-20T14:16:33.986Z,100299.76
2023-07-20T14:19:04.331Z,100307.95
2023-07-20T14:21:32.792Z,100312.77
2023-07-20T14:24:02.255Z,100317.05
2023-07-20T14:26:33.661Z,100314.34
2023-07-20T14:29:02.974Z,100322.20
2023-07-20T14:31:32.972Z,100332.96
2023-07-20T14:34:01.940Z,100337.87
2023-07-20T14:36:31.483Z,100340.39
2023-07-20T14:39:00.603Z,100349.55
2023-07-20T14:41:29.122Z,100365.35
2023-07-20T14:43:58.471Z,100372.44
2023-07-20T14:46:27.159Z,100363.59
2023-07-20T14:48:55.712Z,100364.61
2023-07-20T14:51:24.056Z,100355.26
2023-07-20T14:53:58.156Z,100344.62
2023-07-20T14:56:28.297Z,100355.46
2023-07-20T14:58:59.361Z,100352.30
2023-07-20T15:01:28.993Z,100357.02
2023-07-20T15:03:59.685Z,100361.72
2023-07-20T15:06:31.693Z,100366.23
2023-07-20T15:09:02.368Z,100359.36
2023-07-20T15:11:31.423Z,100360.89
2023-07-20T15:13:59.945Z,100355.63
2023-07-20T15:16:28.813Z,100348.47
2023-07-20T15:18:57.511Z,100355.51
2023-07-20T15:21:27.227Z,100345.11
2023-07-20T15:23:56.121Z,100347.88
2023-07-20T15:26:25.023Z,100354.02
2023-07-20T15:28:53.450Z,100351.38
2023-07-20T15:32:00.265Z,100354.48
2023-07-20T15:34:14.822Z,100355.17
2023-07-20T15:36:46.581Z,100359.45
2023-07-20T15:39:15.345Z,100353.22
2023-07-20T15:41:44.001Z,100353.64
2023-07-20T15:44:13.709Z,100348.43
2023-07-20T15:46:46.416Z,100349.94
2023-07-20T15:49:15.655Z,100348.49
2023-07-20T15:51:44.664Z,100343.66
2023-07-20T15:54:14.407Z,100348.80
2023-07-20T15:56:44.136Z,100347.02
2023-07-20T15:59:14.649Z,100348.94
2023-07-20T16:01:44.427Z,100350.20
2023-07-20T16:04:17.100Z,100350.58
2023-07-20T16:06:45.707Z,100350.53
2023-07-20T16:09:15.900Z,100349.80
2023-07-20T16:11:45.778Z,100351.38
2023-07-20T16:14:16.502Z,100355.21
2023-07-20T16:16:45.459Z,100357.63
2023-07-20T16:19:19.368Z,100358.33
2023-07-20T16:21:48.025Z,100361.25
2023-07-20T16:24:18.469Z,100359.15
2023-07-20T16:26:50.278Z,100355.50
2023-07-20T16:29:23.468Z,100350.31
2023-07-20T16:34:24.709Z,100345.43
2023-07-20T16:39:27.992Z,100353.37
2023-07-20T16:44:28.186Z,100354.16
2023-07-20T16:46:57.178Z,100354.23
2023-07-20T16:49:28.311Z,100348.35
2023-07-20T16:52:00.082Z,100352.85
2023-07-20T16:54:28.616Z,100358.63
2023-07-20T16:56:57.231Z,100352.60
2023-07-20T16:59:28.973Z,100350.11
2023-07-20T17:01:57.912Z,100354.23
2023-07-20T17:04:33.590Z,100356.20
2023-07-20T17:07:02.487Z,100356.71
2023-07-20T17:09:44.366Z,100358.28
2023-07-20T17:12:13.200Z,100353.11
2023-07-20T17:14:41.960Z,100353.39
2023-07-20T17:17:10.760Z,100353.55
2023-07-20T17:19:39.368Z,100359.23
2023-07-20T17:22:11.331Z,100355.69
2023-07-20T17:27:20.136Z,100364.98
2023-07-20T17:29:52.124Z,100361.87
2023-07-20T17:32:20.872Z,100358.23
2023-07-20T17:34:53.822Z,100355.92
2023-07-20T17:37:22.443Z,100354.41
2023-07-20T17:44:58.373Z,100361.77
2023-07-20T17:47:27.484Z,100363.99
2023-07-20T17:50:09.353Z,100364.11
2023-07-20T17:52:38.474Z,100369.61
2023-07-20T17:55:07.836Z,100366.11
2023-07-20T17:57:36.570Z,100367.64
2023-07-20T18:02:54.200Z,100371.59
2023-07-20T18:05:23.074Z,100374.94
2023-07-20T18:07:51.830Z,100373.55
2023-07-20T18:10:20.508Z,100375.10
2023-07-20T18:12:49.164Z,100383.05
2023-07-20T18:15:18.116Z,100385.27
2023-07-20T18:17:46.979Z,100392.82
2023-07-20T18:20:15.665Z,100394.64
2023-07-20T18:22:44.005Z,100395.45
2023-07-20T18:25:12.460Z,100396.99
2023-07-20T18:27:41.888Z,100395.77
2023-07-20T18:30:10.463Z,100393.89
2023-07-20T18:32:38.680Z,100399.28
2023-07-20T18:35:10.922Z,100397.36
2023-07-20T18:37:40.130Z,100396.44
2023-07-20T18:40:09.618Z,100393.98
2023-07-20T18:42:38.521Z,100395.63
2023-07-20T18:45:09.136Z,100394.73
2023-07-20T18:47:38.040Z,100394.36
2023-07-20T18:50:07.345Z,100394.08
2023-07-20T18:52:36.337Z,100394.39
2023-07-20T18:55:04.978Z,100400.38
2023-07-20T18:57:36.947Z,100403.86
2023-07-20T19:00:08.400Z,100403.69
2023-07-20T19:02:37.411Z,100405.63
2023-07-20T19:05:07.031Z,100407.80
2023-07-20T19:07:37.687Z,100408.65
2023-07-20T19:10:07.599Z,100408.18
2023-07-20T19:12:36.081Z,100408.64
2023-07-20T19:15:05.073Z,100408.69
2023-07-20T19:17:33.932Z,100412.38
2023-07-20T19:20:03.253Z,100414.98
2023-07-20T19:22:35.664Z,100416.17
2023-07-20T19:25:07.186Z,100414.45
2023-07-20T19:27:35.901Z,100415.53
2023-07-20T19:30:07.683Z,100415.14
2023-07-20T19:32:36.872Z,100416.34
2023-07-20T19:35:06.644Z,100413.77
2023-07-20T19:37:37.939Z,100418.69
2023-07-20T19:40:12.487Z,100420.93
2023-07-20T19:42:41.099Z,100419.98
2023-07-20T19:45:10.120Z,100422.34
2023-07-20T19:47:39.185Z,100425.27
2023-07-20T19:50:08.713Z,100430.89
2023-07-20T19:52:37.195Z,100428.10
2023-07-20T19:55:07.099Z,100430.16
2023-07-20T19:57:40.657Z,100428.23
2023-07-20T20:00:13.152Z,100431.52
2023-07-20T20:05:16.653Z,100438.79
2023-07-20T20:07:46.671Z,100437.55
2023-07-20T20:10:15.644Z,100441.22
2023-07-20T20:12:44.742Z,100443.98
2023-07-20T20:15:13.498Z,100442.60
2023-07-20T20:17:43.628Z,100439.28
2023-07-20T20:20:13.065Z,100438.35
2023-07-20T20:22:41.765Z,100439.43
2023-07-20T20:25:10.679Z,100438.94
2023-07-20T20:27:40.801Z,100443.46
2023-07-20T20:30:10.479Z,100442.58
2023-07-20T20:32:43.382Z,100444.55
2023-07-20T20:35:12.558Z,100448.60
2023-07-20T20:37:41.300Z,100445.83
2023-07-20T20:40:10.209Z,100440.60
2023-07-20T20:42:38.861Z,100442.88
2023-07-20T20:45:10.678Z,100440.80
2023-07-20T20:47:42.343Z,100438.24
2023-07-20T20:50:12.005Z,100444.90
2023-07-20T20:52:40.600Z,100447.77
2023-07-20T20:55:10.419Z,100448.62
2023-07-20T20:57:38.788Z,100450.59
2023-07-20T21:00:08.546Z,100456.17
2023-07-20T21:02:37.100Z,100462.20
2023-07-20T21:05:07.362Z,100460.88
2023-07-20T21:07:35.745Z,100465.83
2023-07-20T21:10:04.312Z,100463.98
2023-07-20T21:12:33.266Z,100462.61
2023-07-20T21:15:07.175Z,100463.16
2023-07-20T21:17:36.490Z,100465.73
2023-07-20T21:20:07.546Z,100465.17
2023-07-20T21:22:38.250Z,100466.45
2023-07-20T21:25:07.347Z,100463.16
2023-07-20T21:27:35.747Z,100463.26
2023-07-20T21:30:04.397Z,100468.42
2023-07-20T21:32:35.253Z,100470.70
2023-07-20T21:35:03.706Z,100474.08
2023-07-20T21:37:32.626Z,100476.17
2023-07-20T21:40:01.046Z,100479.88
2023-07-20T21:42:30.841Z,100481.65
2023-07-20T21:44:59.502Z,100485.33
2023-07-20T21:47:28.374Z,100488.15
2023-07-20T21:49:58.599Z,100492.19
2023-07-20T21:52:27.386Z,100493.55
2023-07-20T21:54:55.882Z,100489.70
2023-07-20T21:57:24.665Z,100492.83
2023-07-20T21:59:53.171Z,100495.77
2023-07-20T22:02:21.738Z,100500.08
2023-07-20T22:04:50.449Z,100497.92
2023-07-20T22:07:21.664Z,100500.36
2023-07-20T22:09:50.017Z,100503.77
2023-07-20T22:12:18.853Z,100501.73
2023-07-20T22:14:47.434Z,100499.16
2023-07-20T22:17:16.110Z,100499.73
2023-07-20T22:19:45.307Z,100498.36
2023-07-20T22:22:14.463Z,100503.16
2023-07-20T22:24:43.556Z,100505.05
2023-07-20T22:27:12.107Z,100504.86
2023-07-20T22:29:40.645Z,100505.33
2023-07-20T22:32:10.662Z,100508.85
2023-07-20T22:34:39.889Z,100505.06
2023-07-20T22:37:08.340Z,100506.83
2023-07-20T22:39:36.705Z,100505.85
2023-07-20T22:42:05.225Z,100505.11
2023-07-20T22:44:34.092Z,100509.77
2023-07-20T22:47:05.020Z,100503.83
2023-07-20T22:49:35.150Z,100501.81
2023-07-20T22:52:03.858Z,100501.50
2023-07-20T22:54:33.198Z,100500.49
2023-07-20T22:57:01.613Z,100503.73
2023-07-20T22:59:30.124Z,100499.80
2023-07-20T23:01:59.484Z,100494.06
2023-07-20T23:04:28.140Z,100494.78
2023-07-20T23:06:57.154Z,100492.65
2023-07-20T23:09:25.590Z,100498.46
2023-07-20T23:11:54.378Z,100492.27
2023-07-20T23:14:23.187Z,100490.18
2023-07-20T23:16:52.909Z,100490.12
2023-07-20T23:19:22.489Z,100489.49
2023-07-20T23:21:50.734Z,100489.06
2023-07-20T23:24:19.213Z,100488.95
2023-07-20T23:26:47.690Z,100486.87
2023-07-20T23:29:16.499Z,100489.40
2023-07-20T23:31:45.211Z,100491.52
2023-07-20T23:34:13.625Z,100493.66
2023-07-20T23:36:41.933Z,100495.54
2023-07-20T23:39:10.557Z,100495.06
2023-07-20T23:41:39.084Z,100498.27
2023-07-20T23:44:07.844Z,100494.81
2023-07-20T23:46:36.148Z,100491.30
2023-07-20T23:49:05.688Z,100491.20
2023-07-20T23:51:33.872Z,100491.83
2023-07-20T23:54:02.518Z,100490.07
2023-07-20T23:56:30.827Z,100489.61
2023-07-20T23:58:59.108Z,100492.50
